createdAt,value
2023-01-31T00:01:22.872Z,22.63
2023-01-31T00:03:57.040Z,15.50
2023-01-31T00:06:27.302Z,27.60
2023-01-31T00:08:55.493Z,21.90
2023-01-31T00:11:25.733Z,29.57
2023-01-31T00:14:03.707Z,18.87
2023-01-31T00:16:33.842Z,29.33
2023-01-31T00:19:00.779Z,22.13
2023-01-31T00:21:30.031Z,28.03
2023-01-31T00:23:57.868Z,18.63
2023-01-31T00:26:30.123Z,20.17
2023-01-31T00:28:58.663Z,25.77
2023-01-31T00:31:30.260Z,17.33
2023-01-31T00:33:57.672Z,25.53
2023-01-31T00:36:27.443Z,19.93
2023-01-31T00:38:56.758Z,22.77
2023-01-31T00:41:25.391Z,20.87
2023-01-31T00:43:52.603Z,21.00
2023-01-31T00:46:20.821Z,19.40
2023-01-31T00:48:48.689Z,20.53
2023-01-31T00:51:15.921Z,12.93
2023-01-31T00:53:42.745Z,23.67
2023-01-31T00:56:13.323Z,15.87
2023-01-31T00:58:41.054Z,26.60
2023-01-31T01:01:11.241Z,20.70
2023-01-31T01:03:39.333Z,22.67
2023-01-31T01:06:07.334Z,25.30
2023-01-31T01:08:35.526Z,21.77
2023-01-31T01:11:13.861Z,25.57
2023-01-31T01:13:41.118Z,17.87
2023-01-31T01:16:13.004Z,21.47
2023-01-31T01:18:40.321Z,28.17
2023-01-31T01:21:12.976Z,23.73
2023-01-31T01:23:41.217Z,16.47
2023-01-31T01:26:19.428Z,23.57
2023-01-31T01:28:46.762Z,26.83
2023-01-31T01:31:16.511Z,30.33
2023-01-31T01:33:45.924Z,27.83
2023-01-31T01:36:17.439Z,21.17
2023-01-31T01:38:45.938Z,22.17
2023-01-31T01:41:13.873Z,20.83
2023-01-31T01:43:43.633Z,21.07
2023-01-31T01:46:14.528Z,22.27
2023-01-31T01:48:41.892Z,22.67
2023-01-31T01:51:09.172Z,15.17
2023-01-31T01:53:40.199Z,20.43
2023-01-31T01:56:10.603Z,32.07
2023-01-31T01:58:42.894Z,18.93
2023-01-31T02:01:11.042Z,21.20
2023-01-31T02:03:39.330Z,19.10
2023-01-31T02:06:06.738Z,17.10
2023-01-31T02:08:36.089Z,18.03
2023-01-31T02:11:14.287Z,17.30
2023-01-31T02:13:42.231Z,14.60
2023-01-31T02:16:14.744Z,23.55
2023-01-31T02:18:42.488Z,21.05
2023-01-31T02:21:47.264Z,21.05
2023-01-31T02:25:09.259Z,23.63
2023-01-31T02:28:06.768Z,18.58
2023-01-31T02:30:52.144Z,22.80
2023-01-31T02:33:49.427Z,22.77
2023-01-31T02:36:24.642Z,18.25
2023-01-31T02:39:16.857Z,18.93
2023-01-31T02:41:52.320Z,18.45
2023-01-31T02:44:47.839Z,29.23
2023-01-31T02:47:43.551Z,31.15
2023-01-31T02:50:43.866Z,14.43
2023-01-31T02:53:15.543Z,21.13
2023-01-31T02:56:14.540Z,26.42
2023-01-31T02:58:45.654Z,20.98
2023-01-31T03:01:18.345Z,22.52
2023-01-31T03:03:46.634Z,19.23
2023-01-31T03:06:23.160Z,23.85
2023-01-31T03:08:58.213Z,20.25
2023-01-31T03:11:32.865Z,26.52
2023-01-31T03:14:14.866Z,23.58
2023-01-31T03:17:31.583Z,25.05
2023-01-31T03:20:13.057Z,20.92
2023-01-31T03:22:44.411Z,22.48
2023-01-31T03:25:14.225Z,16.55
2023-01-31T03:27:46.296Z,17.92
2023-01-31T03:30:20.724Z,21.30
2023-01-31T03:32:54.960Z,17.17
2023-01-31T03:35:24.503Z,18.98
2023-01-31T03:37:57.308Z,20.75
2023-01-31T03:41:06.412Z,18.77
2023-01-31T03:43:40.482Z,18.88
2023-01-31T03:46:51.143Z,19.67
2023-01-31T03:49:19.723Z,18.57
2023-01-31T03:51:50.642Z,26.42
2023-01-31T03:54:26.283Z,19.73
2023-01-31T03:56:58.120Z,17.00
2023-01-31T03:59:29.393Z,20.37
2023-01-31T04:01:57.550Z,23.02
2023-01-31T04:05:03.643Z,15.75
2023-01-31T04:07:30.510Z,23.95
2023-01-31T04:09:57.304Z,27.85
2023-01-31T04:12:24.079Z,20.15
2023-01-31T04:14:50.760Z,21.35
2023-01-31T04:17:17.484Z,23.02
2023-01-31T04:19:44.328Z,27.63
2023-01-31T04:22:11.715Z,18.98
2023-01-31T04:24:38.537Z,22.38
2023-01-31T04:27:05.262Z,21.13
2023-01-31T04:29:31.960Z,23.20
2023-01-31T04:31:58.827Z,21.20
2023-01-31T04:34:25.770Z,22.60
2023-01-31T04:36:52.538Z,20.77
2023-01-31T04:39:19.321Z,14.95
2023-01-31T04:41:46.042Z,17.23
2023-01-31T04:44:12.813Z,19.52
2023-01-31T04:46:39.578Z,18.88
2023-01-31T04:49:06.556Z,18.25
2023-01-31T04:51:33.459Z,17.95
2023-01-31T04:54:00.468Z,21.27
2023-01-31T04:56:27.422Z,20.17
2023-01-31T04:58:54.199Z,19.02
2023-01-31T05:01:21.781Z,28.48
2023-01-31T05:03:48.683Z,25.13
2023-01-31T05:06:15.625Z,22.38
2023-01-31T05:08:42.469Z,15.02
2023-01-31T05:11:10.977Z,16.95
2023-01-31T05:13:41.320Z,22.95
2023-01-31T05:16:10.817Z,22.20
2023-01-31T05:18:38.213Z,16.02
2023-01-31T05:21:06.337Z,21.23
2023-01-31T05:23:33.391Z,21.92
2023-01-31T05:26:00.268Z,24.98
2023-01-31T05:28:26.985Z,17.70
2023-01-31T05:30:54.430Z,15.85
2023-01-31T05:33:21.398Z,24.83
2023-01-31T05:35:48.910Z,16.02
2023-01-31T05:38:15.943Z,19.70
2023-01-31T05:40:43.821Z,19.75
2023-01-31T05:43:10.790Z,15.55
2023-01-31T05:45:37.905Z,20.02
2023-01-31T05:48:05.463Z,22.45
2023-01-31T05:50:33.173Z,15.20
2023-01-31T05:53:09.442Z,17.33
2023-01-31T05:55:36.613Z,19.15
2023-01-31T05:58:03.729Z,15.80
2023-01-31T06:00:31.003Z,14.07
2023-01-31T06:02:58.869Z,21.23
2023-01-31T06:05:25.882Z,18.80
2023-01-31T06:07:52.724Z,22.55
2023-01-31T06:10:21.116Z,19.52
2023-01-31T06:12:48.213Z,18.75
2023-01-31T06:15:15.199Z,25.60
2023-01-31T06:17:42.041Z,22.55
2023-01-31T06:20:09.496Z,18.70
2023-01-31T06:22:36.513Z,18.13
2023-01-31T06:25:03.341Z,15.43
2023-01-31T06:27:33.197Z,14.60
2023-01-31T06:30:00.276Z,23.13
2023-01-31T06:32:27.090Z,18.17
2023-01-31T06:34:54.968Z,16.83
2023-01-31T06:37:21.967Z,20.60
2023-01-31T06:39:48.853Z,18.75
2023-01-31T06:42:15.664Z,17.35
2023-01-31T06:44:42.641Z,23.67
2023-01-31T06:47:09.391Z,28.33
2023-01-31T06:49:36.302Z,20.05
2023-01-31T06:52:03.295Z,20.13
2023-01-31T06:54:32.560Z,17.15
2023-01-31T06:56:59.782Z,23.15
2023-01-31T06:59:26.668Z,26.60
2023-01-31T07:01:55.020Z,19.83
2023-01-31T07:04:21.926Z,17.30
2023-01-31T07:06:48.731Z,16.52
2023-01-31T07:09:15.525Z,25.30
2023-01-31T07:11:42.351Z,26.03
2023-01-31T07:14:09.226Z,23.05
2023-01-31T07:16:38.166Z,21.53
2023-01-31T07:19:05.350Z,24.20
2023-01-31T07:21:33.449Z,24.83
2023-01-31T07:24:00.277Z,19.93
2023-01-31T07:26:27.257Z,30.13
2023-01-31T07:28:54.134Z,15.97
2023-01-31T07:31:21.183Z,18.17
2023-01-31T07:33:48.264Z,20.80
2023-01-31T07:36:16.719Z,22.27
2023-01-31T07:38:43.695Z,24.20
2023-01-31T07:41:11.629Z,23.27
2023-01-31T07:43:39.061Z,20.60
2023-01-31T07:46:10.525Z,24.10
2023-01-31T07:48:37.696Z,20.50
2023-01-31T07:51:05.001Z,22.10
2023-01-31T07:53:35.341Z,21.70
2023-01-31T07:56:10.165Z,14.40
2023-01-31T07:58:38.307Z,18.50
2023-01-31T08:01:23.707Z,10.80
2023-01-31T08:03:50.994Z,21.53
2023-01-31T08:06:18.235Z,22.67
2023-01-31T08:08:46.141Z,13.97
2023-01-31T08:11:13.154Z,20.37
2023-01-31T08:13:40.215Z,18.13
2023-01-31T08:16:09.365Z,17.47
2023-01-31T08:18:38.293Z,17.70
2023-01-31T08:21:06.499Z,13.00
2023-01-31T08:23:34.211Z,22.03
2023-01-31T08:26:02.751Z,15.30
2023-01-31T08:28:30.605Z,17.47
2023-01-31T08:31:08.089Z,17.90
2023-01-31T08:33:37.654Z,16.73
2023-01-31T08:36:25.260Z,15.20
2023-01-31T08:38:52.350Z,17.77
2023-01-31T08:41:20.986Z,20.77
2023-01-31T08:43:59.003Z,17.90
2023-01-31T08:46:30.402Z,18.37
2023-01-31T08:48:57.605Z,17.90
2023-01-31T08:51:24.676Z,17.13
2023-01-31T08:53:51.935Z,19.10
2023-01-31T08:56:21.688Z,18.27
2023-01-31T08:58:48.814Z,18.33
2023-01-31T09:01:18.622Z,24.30
2023-01-31T09:03:46.723Z,14.80
2023-01-31T09:06:21.793Z,19.20
2023-01-31T09:08:48.773Z,19.23
2023-01-31T09:11:19.140Z,20.30
2023-01-31T09:13:47.708Z,21.07
2023-01-31T09:16:15.159Z,20.43
2023-01-31T09:18:43.023Z,14.57
2023-01-31T09:21:15.283Z,18.67
2023-01-31T09:23:42.923Z,22.20
2023-01-31T09:26:11.844Z,20.00
2023-01-31T09:28:38.692Z,19.90
2023-01-31T09:31:07.753Z,16.00
2023-01-31T09:33:37.508Z,14.90
2023-01-31T09:36:07.111Z,18.57
2023-01-31T09:38:34.454Z,22.23
2023-01-31T09:41:03.887Z,20.53
2023-01-31T09:43:36.400Z,22.30
2023-01-31T09:46:05.265Z,15.30
2023-01-31T09:48:35.819Z,18.17
2023-01-31T09:51:05.209Z,17.27
2023-01-31T09:53:36.380Z,14.77
2023-01-31T09:56:27.551Z,14.37
2023-01-31T09:59:22.167Z,13.07
2023-01-31T10:01:52.020Z,19.10
2023-01-31T10:04:29.496Z,15.70
2023-01-31T10:07:10.059Z,16.50
2023-01-31T10:09:42.692Z,17.77
2023-01-31T10:12:30.434Z,22.20
2023-01-31T10:15:03.667Z,16.07
2023-01-31T10:17:34.778Z,12.80
2023-01-31T10:20:13.077Z,12.23
2023-01-31T10:23:14.392Z,11.73
2023-01-31T10:26:06.723Z,15.80
2023-01-31T10:28:39.189Z,13.70
2023-01-31T10:31:32.121Z,11.90
2023-01-31T10:34:13.639Z,16.57
2023-01-31T10:36:49.602Z,10.73
2023-01-31T10:39:31.946Z,13.30
2023-01-31T10:42:02.201Z,18.37
2023-01-31T10:44:52.650Z,17.57
2023-01-31T10:47:21.068Z,23.17
2023-01-31T10:49:49.789Z,17.00
2023-01-31T10:52:38.320Z,17.87
2023-01-31T10:55:05.234Z,24.40
2023-01-31T10:57:32.788Z,11.80
2023-01-31T10:59:59.677Z,16.07
2023-01-31T11:02:28.481Z,15.50
2023-01-31T11:04:57.722Z,17.87
2023-01-31T11:07:25.363Z,17.03
2023-01-31T11:09:55.890Z,11.30
2023-01-31T11:12:40.616Z,15.07
2023-01-31T11:15:19.236Z,14.60
2023-01-31T11:17:46.783Z,11.47
2023-01-31T11:20:25.118Z,17.67
2023-01-31T11:22:53.560Z,13.37
2023-01-31T11:25:22.752Z,13.30
2023-01-31T11:27:53.401Z,12.93
2023-01-31T11:30:29.024Z,14.27
2023-01-31T11:32:56.191Z,14.97
2023-01-31T11:35:29.957Z,13.07
2023-01-31T11:37:59.529Z,17.53
2023-01-31T11:40:35.498Z,13.80
2023-01-31T11:43:05.125Z,13.23
2023-01-31T11:45:37.534Z,14.73
2023-01-31T11:48:08.566Z,15.40
2023-01-31T11:50:41.191Z,13.90
2023-01-31T11:53:20.342Z,13.17
2023-01-31T11:55:48.808Z,12.53
2023-01-31T11:58:22.820Z,13.33
2023-01-31T12:00:55.898Z,16.40
2023-01-31T12:03:23.268Z,14.57
2023-01-31T12:05:51.968Z,16.40
2023-01-31T12:08:35.916Z,14.07
2023-01-31T12:11:27.325Z,14.77
2023-01-31T12:14:01.937Z,20.50
2023-01-31T12:16:30.370Z,15.17
2023-01-31T12:19:12.347Z,12.17
2023-01-31T12:22:04.084Z,13.03
2023-01-31T12:25:00.786Z,16.30
2023-01-31T12:28:07.028Z,18.23
2023-01-31T12:30:49.075Z,14.10
2023-01-31T12:33:45.051Z,13.03
2023-01-31T12:36:26.806Z,14.27
2023-01-31T12:39:08.828Z,14.00
2023-01-31T12:41:56.092Z,16.10
2023-01-31T12:44:45.130Z,16.60
2023-01-31T12:47:30.777Z,14.83
2023-01-31T12:49:58.603Z,18.70
2023-01-31T12:52:38.584Z,16.03
2023-01-31T12:55:42.911Z,19.20
2023-01-31T12:58:31.447Z,17.83
2023-01-31T13:01:05.093Z,18.50
2023-01-31T13:03:39.100Z,18.17
2023-01-31T13:06:15.339Z,19.67
2023-01-31T13:09:13.574Z,19.27
2023-01-31T13:11:46.812Z,14.30
2023-01-31T13:14:18.567Z,11.20
2023-01-31T13:16:47.723Z,21.20
2023-01-31T13:19:26.935Z,22.13
2023-01-31T13:21:59.830Z,17.63
2023-01-31T13:24:37.419Z,19.60
2023-01-31T13:27:07.216Z,17.83
2023-01-31T13:29:43.851Z,17.47
2023-01-31T13:32:26.514Z,18.83
2023-01-31T13:34:59.389Z,22.50
2023-01-31T13:37:30.577Z,21.50
2023-01-31T13:40:02.171Z,22.83
2023-01-31T13:42:29.492Z,17.90
2023-01-31T13:45:01.431Z,16.83
2023-01-31T13:47:32.326Z,15.87
2023-01-31T13:50:06.622Z,16.60
2023-01-31T13:52:39.260Z,18.90
2023-01-31T13:55:17.386Z,22.53
2023-01-31T13:57:51.468Z,19.17
2023-01-31T14:00:41.012Z,17.90
2023-01-31T14:03:16.444Z,15.03
2023-01-31T14:05:43.343Z,16.70
2023-01-31T14:08:30.137Z,13.03
2023-01-31T14:10:58.818Z,17.10
2023-01-31T14:13:31.856Z,17.47
2023-01-31T14:15:58.990Z,14.70
2023-01-31T14:18:40.474Z,16.13
2023-01-31T14:21:29.003Z,14.63
2023-01-31T14:23:57.348Z,10.93
2023-01-31T14:26:59.468Z,15.33
2023-01-31T14:29:26.811Z,12.93
2023-01-31T14:31:55.606Z,10.67
2023-01-31T14:34:27.887Z,16.43
2023-01-31T14:37:03.796Z,10.80
2023-01-31T14:39:58.494Z,12.13
2023-01-31T14:42:37.863Z,10.50
2023-01-31T14:45:30.908Z,7.77
2023-01-31T14:48:09.664Z,13.87
2023-01-31T14:51:00.741Z,5.20
2023-01-31T14:53:55.691Z,5.07
2023-01-31T14:56:51.860Z,11.30
2023-01-31T14:59:57.413Z,9.50
2023-01-31T15:02:33.636Z,8.60
2023-01-31T15:05:03.921Z,10.93
2023-01-31T15:07:30.856Z,9.67
2023-01-31T15:09:58.945Z,13.60
2023-01-31T15:13:10.888Z,8.53
2023-01-31T15:15:38.920Z,11.30
2023-01-31T15:18:14.633Z,7.83
2023-01-31T15:20:44.074Z,11.60
2023-01-31T15:23:17.842Z,8.43
2023-01-31T15:25:46.609Z,9.73
2023-01-31T15:28:16.277Z,12.33
2023-01-31T15:30:43.989Z,8.00
2023-01-31T15:33:26.876Z,10.17
2023-01-31T15:35:59.192Z,9.63
2023-01-31T15:38:35.690Z,7.43
2023-01-31T15:41:41.873Z,6.93
2023-01-31T15:44:17.742Z,8.90
2023-01-31T15:46:46.294Z,10.70
2023-01-31T15:49:38.597Z,10.17
2023-01-31T15:52:17.027Z,8.13
2023-01-31T15:55:06.719Z,7.73
2023-01-31T15:57:57.850Z,14.70
2023-01-31T16:00:28.548Z,8.60
2023-01-31T16:03:01.710Z,10.97
2023-01-31T16:05:36.736Z,12.53
2023-01-31T16:08:21.040Z,10.67
2023-01-31T16:10:48.547Z,8.00
2023-01-31T16:13:15.567Z,14.53
2023-01-31T16:15:43.041Z,5.60
2023-01-31T16:18:11.056Z,7.87
2023-01-31T16:20:45.509Z,7.33
2023-01-31T16:23:24.901Z,7.97
2023-01-31T16:26:22.087Z,10.97
2023-01-31T16:28:54.898Z,7.77
2023-01-31T16:31:23.264Z,6.63
2023-01-31T16:33:50.102Z,8.83
2023-01-31T16:36:23.034Z,10.43
2023-01-31T16:39:05.629Z,6.67
2023-01-31T16:41:43.874Z,11.47
2023-01-31T16:44:21.822Z,8.37
2023-01-31T16:46:51.865Z,12.67
2023-01-31T16:49:21.957Z,8.67
2023-01-31T16:51:49.946Z,8.43
2023-01-31T16:54:31.070Z,6.57
2023-01-31T16:57:05.990Z,9.07
2023-01-31T16:59:38.873Z,12.07
2023-01-31T17:02:09.008Z,9.10
2023-01-31T17:04:39.672Z,6.57
2023-01-31T17:07:14.559Z,10.03
2023-01-31T17:09:41.521Z,16.80
2023-01-31T17:12:21.580Z,9.70
2023-01-31T17:14:48.776Z,9.63
2023-01-31T17:17:20.610Z,7.50
2023-01-31T17:19:48.817Z,8.30
2023-01-31T17:22:15.764Z,9.87
2023-01-31T17:24:42.571Z,7.73
2023-01-31T17:27:14.812Z,10.47
2023-01-31T17:29:42.456Z,8.40
2023-01-31T17:32:12.192Z,13.77
2023-01-31T17:34:39.889Z,9.27
2023-01-31T17:37:07.459Z,10.07
2023-01-31T17:39:35.015Z,9.73
2023-01-31T17:42:01.978Z,7.43
2023-01-31T17:44:28.929Z,6.53
2023-01-31T17:46:56.118Z,7.07
2023-01-31T17:49:22.874Z,11.60
2023-01-31T17:51:49.787Z,11.67
2023-01-31T17:54:16.490Z,11.83
2023-01-31T17:56:43.498Z,12.37
2023-01-31T17:59:18.249Z,8.67
2023-01-31T18:01:52.377Z,8.83
2023-01-31T18:04:19.112Z,9.30
2023-01-31T18:06:47.011Z,8.93
2023-01-31T18:09:15.789Z,4.83
2023-01-31T18:11:43.893Z,9.47
2023-01-31T18:14:11.669Z,7.07
2023-01-31T18:16:38.899Z,7.43
2023-01-31T18:19:05.805Z,7.40
2023-01-31T18:21:34.301Z,8.27
2023-01-31T18:24:01.894Z,12.20
2023-01-31T18:26:28.701Z,7.63
2023-01-31T18:28:57.602Z,9.63
2023-01-31T18:31:24.940Z,8.43
2023-01-31T18:33:51.678Z,4.63
2023-01-31T18:36:20.217Z,10.10
2023-01-31T18:38:48.434Z,9.90
2023-01-31T18:41:18.300Z,9.90
2023-01-31T18:43:46.037Z,11.67
2023-01-31T18:46:13.476Z,11.07
2023-01-31T18:48:40.653Z,10.67
2023-01-31T18:51:09.040Z,6.27
2023-01-31T18:53:39.643Z,6.13
2023-01-31T18:56:08.644Z,9.53
2023-01-31T18:58:38.000Z,12.63
2023-01-31T19:01:15.429Z,10.37
2023-01-31T19:03:42.889Z,10.10
2023-01-31T19:06:14.994Z,15.57
2023-01-31T19:08:58.309Z,11.00
2023-01-31T19:11:27.163Z,10.40
2023-01-31T19:13:58.245Z,13.30
2023-01-31T19:16:28.318Z,10.87
2023-01-31T19:18:56.478Z,12.27
2023-01-31T19:21:30.584Z,8.67
2023-01-31T19:23:59.577Z,7.33
2023-01-31T19:26:26.790Z,10.37
2023-01-31T19:28:53.762Z,14.90
2023-01-31T19:31:22.921Z,10.67
2023-01-31T19:33:53.733Z,10.93
2023-01-31T19:36:25.889Z,12.77
2023-01-31T19:38:53.369Z,9.23
2023-01-31T19:41:22.091Z,8.50
2023-01-31T19:43:50.501Z,14.07
2023-01-31T19:46:18.091Z,14.40
2023-01-31T19:48:45.132Z,10.63
2023-01-31T19:51:14.100Z,18.63
2023-01-31T19:53:41.239Z,11.13
2023-01-31T19:56:08.677Z,14.13
2023-01-31T19:58:36.417Z,10.13
2023-01-31T20:01:15.991Z,12.27
2023-01-31T20:03:43.481Z,13.83
2023-01-31T20:06:16.481Z,11.13
2023-01-31T20:08:43.256Z,11.37
2023-01-31T20:11:10.385Z,13.03
2023-01-31T20:13:37.499Z,14.60
2023-01-31T20:16:06.838Z,10.93
2023-01-31T20:18:38.043Z,12.27
2023-01-31T20:21:05.885Z,14.87
2023-01-31T20:23:32.840Z,10.57
2023-01-31T20:26:00.446Z,11.47
2023-01-31T20:28:27.681Z,11.03
2023-01-31T20:30:54.594Z,14.93
2023-01-31T20:33:22.015Z,14.10
2023-01-31T20:35:48.845Z,15.80
2023-01-31T20:38:20.965Z,15.67
2023-01-31T20:40:52.719Z,14.03
2023-01-31T20:43:22.925Z,13.63
2023-01-31T20:45:50.425Z,16.63
2023-01-31T20:48:17.860Z,19.80
2023-01-31T20:50:44.886Z,16.33
2023-01-31T20:53:20.926Z,13.53
2023-01-31T20:55:58.009Z,14.17
2023-01-31T20:58:26.704Z,14.40
2023-01-31T21:00:55.704Z,17.03
2023-01-31T21:03:24.300Z,15.87
2023-01-31T21:05:51.719Z,15.37
2023-01-31T21:08:19.904Z,17.53
2023-01-31T21:10:51.176Z,15.77
2023-01-31T21:13:18.674Z,19.30
2023-01-31T21:15:55.424Z,17.43
2023-01-31T21:18:23.042Z,16.40
2023-01-31T21:20:49.844Z,15.93
2023-01-31T21:23:18.929Z,14.87
2023-01-31T21:25:45.770Z,21.07
2023-01-31T21:28:12.553Z,20.43
2023-01-31T21:30:39.370Z,19.50
2023-01-31T21:33:06.217Z,20.57
2023-01-31T21:35:32.909Z,17.83
2023-01-31T21:37:59.644Z,9.47
2023-01-31T21:40:26.370Z,16.50
2023-01-31T21:42:54.306Z,19.57
2023-01-31T21:45:39.745Z,13.27
2023-01-31T21:48:29.286Z,15.27
2023-01-31T21:50:57.166Z,17.50
2023-01-31T21:53:24.186Z,12.07
2023-01-31T21:55:50.946Z,12.20
2023-01-31T21:58:18.172Z,13.93
2023-01-31T22:00:45.024Z,14.07
2023-01-31T22:03:11.844Z,16.50
2023-01-31T22:05:38.571Z,18.70
2023-01-31T22:08:05.653Z,16.33
2023-01-31T22:10:32.357Z,17.63
2023-01-31T22:12:59.086Z,17.57
2023-01-31T22:15:26.040Z,18.63
2023-01-31T22:17:53.126Z,17.90
2023-01-31T22:20:20.274Z,17.37
2023-01-31T22:22:48.693Z,18.60
2023-01-31T22:25:15.726Z,17.97
2023-01-31T22:27:42.727Z,22.50
2023-01-31T22:30:16.101Z,17.37
2023-01-31T22:32:43.738Z,22.17
2023-01-31T22:35:10.687Z,15.87
2023-01-31T22:37:37.465Z,16.40
2023-01-31T22:40:04.445Z,12.17
2023-01-31T22:42:31.255Z,14.43
2023-01-31T22:44:58.052Z,18.97
2023-01-31T22:47:24.913Z,16.23
2023-01-31T22:49:51.683Z,21.23
2023-01-31T22:52:18.494Z,23.30
2023-01-31T22:54:45.127Z,19.53
2023-01-31T22:57:12.448Z,13.33
2023-01-31T22:59:39.164Z,14.83
2023-01-31T23:02:06.508Z,17.43
2023-01-31T23:04:33.486Z,20.97
2023-01-31T23:07:00.456Z,18.70
2023-01-31T23:09:27.386Z,18.50
2023-01-31T23:11:54.237Z,18.30
2023-01-31T23:14:21.021Z,15.53
2023-01-31T23:17:06.216Z,20.57
2023-01-31T23:19:33.101Z,18.30
2023-01-31T23:21:59.780Z,18.43
2023-01-31T23:24:26.612Z,19.33
2023-01-31T23:26:54.736Z,21.30
2023-01-31T23:29:21.525Z,22.00
2023-01-31T23:31:48.290Z,19.73
2023-01-31T23:34:15.087Z,18.93
2023-01-31T23:36:41.966Z,17.93
2023-01-31T23:39:09.490Z,22.10
2023-01-31T23:41:36.335Z,19.77
2023-01-31T23:44:03.613Z,20.77
2023-01-31T23:46:30.675Z,15.77
2023-01-31T23:48:57.698Z,19.63
2023-01-31T23:51:24.506Z,18.83
2023-01-31T23:53:51.278Z,14.23
2023-01-31T23:56:18.090Z,23.80
2023-01-31T23:58:44.887Z,16.03
